createdAt,value
2022-10-07T00:00:47.204Z,72.90
2022-10-07T00:02:18.901Z,72.80
2022-10-07T00:03:50.954Z,72.90
2022-10-07T00:05:22.541Z,72.80
2022-10-07T00:06:54.147Z,72.90
2022-10-07T00:08:25.810Z,72.90
2022-10-07T00:09:57.384Z,72.80
2022-10-07T00:11:29.263Z,72.70
2022-10-07T00:13:02.114Z,72.60
2022-10-07T00:14:33.905Z,72.70
2022-10-07T00:16:07.862Z,72.80
2022-10-07T00:17:39.490Z,72.60
2022-10-07T00:19:13.531Z,72.90
2022-10-07T00:20:45.132Z,72.80
2022-10-07T00:22:16.782Z,72.90
2022-10-07T00:23:48.846Z,72.50
2022-10-07T00:25:21.370Z,72.60
2022-10-07T00:26:52.963Z,72.60
2022-10-07T00:28:28.202Z,72.70
2022-10-07T00:29:59.862Z,72.60
2022-10-07T00:31:34.066Z,72.60
2022-10-07T00:33:06.406Z,72.50
2022-10-07T00:34:38.031Z,72.60
2022-10-07T00:36:19.799Z,72.50
2022-10-07T00:37:51.521Z,72.40
2022-10-07T00:39:23.165Z,72.10
2022-10-07T00:40:55.449Z,72.30
2022-10-07T00:42:27.271Z,72.30
2022-10-07T00:44:00.162Z,72.30
2022-10-07T00:45:31.883Z,72.50
2022-10-07T00:47:14.295Z,72.40
2022-10-07T00:48:46.775Z,72.50
2022-10-07T00:50:27.643Z,72.40
2022-10-07T00:51:59.310Z,72.40
2022-10-07T00:53:33.663Z,72.40
2022-10-07T00:55:11.715Z,72.40
2022-10-07T00:56:45.014Z,72.40
2022-10-07T00:58:19.143Z,72.40
2022-10-07T00:59:51.842Z,72.30
2022-10-07T01:01:25.037Z,72.50
2022-10-07T01:02:56.744Z,72.40
2022-10-07T01:04:30.407Z,72.40
2022-10-07T01:06:06.046Z,72.40
2022-10-07T01:07:38.980Z,72.20
2022-10-07T01:09:11.563Z,72.50
2022-10-07T01:11:28.415Z,72.20
2022-10-07T01:13:07.255Z,72.30
2022-10-07T01:15:19.243Z,72.20
2022-10-07T01:16:54.100Z,72.20
2022-10-07T01:18:31.336Z,72.20
2022-10-07T01:20:34.635Z,72.10
2022-10-07T01:22:39.179Z,72.30
2022-10-07T01:24:32.004Z,72.00
2022-10-07T01:26:22.560Z,72.00
2022-10-07T01:28:04.265Z,72.20
2022-10-07T01:29:43.128Z,72.00
2022-10-07T01:31:19.361Z,72.10
2022-10-07T01:32:59.140Z,72.00
2022-10-07T01:34:34.566Z,72.00
2022-10-07T01:36:15.564Z,72.20
2022-10-07T01:37:52.528Z,72.20
2022-10-07T01:39:30.437Z,72.10
2022-10-07T01:41:09.022Z,72.10
2022-10-07T01:42:41.251Z,72.00
2022-10-07T01:44:14.227Z,72.00
2022-10-07T01:45:48.842Z,72.10
2022-10-07T01:47:20.644Z,72.20
2022-10-07T01:48:53.299Z,71.90
2022-10-07T01:50:28.682Z,72.00
2022-10-07T01:52:17.814Z,72.10
2022-10-07T01:54:15.907Z,72.00
2022-10-07T01:56:43.589Z,72.00
2022-10-07T01:58:35.691Z,71.90
2022-10-07T02:00:12.989Z,72.00
2022-10-07T02:01:55.869Z,71.90
2022-10-07T02:03:33.781Z,72.10
2022-10-07T02:05:33.236Z,71.90
2022-10-07T02:07:33.412Z,72.10
2022-10-07T02:09:25.299Z,71.90
2022-10-07T02:10:59.795Z,72.00
2022-10-07T02:12:40.094Z,71.90
2022-10-07T02:14:27.880Z,72.10
2022-10-07T02:16:10.928Z,72.00
2022-10-07T02:17:48.459Z,72.10
2022-10-07T02:19:26.227Z,72.10
2022-10-07T02:21:00.462Z,72.10
2022-10-07T02:22:33.072Z,72.10
2022-10-07T02:24:08.590Z,72.10
2022-10-07T02:25:46.046Z,72.10
2022-10-07T02:27:22.917Z,72.30
2022-10-07T02:28:59.711Z,72.20
2022-10-07T02:30:32.766Z,72.20
2022-10-07T02:32:09.912Z,72.30
2022-10-07T02:33:42.934Z,72.10
2022-10-07T02:35:23.180Z,72.10
2022-10-07T02:36:58.693Z,72.20
2022-10-07T02:38:32.244Z,72.20
2022-10-07T02:40:09.655Z,72.30
2022-10-07T02:42:15.164Z,72.20
2022-10-07T02:43:56.253Z,72.00
2022-10-07T02:45:48.737Z,72.10
2022-10-07T02:47:29.527Z,72.00
2022-10-07T02:49:05.685Z,72.10
2022-10-07T02:50:42.327Z,72.20
2022-10-07T02:52:17.919Z,72.20
2022-10-07T02:53:52.918Z,72.10
2022-10-07T02:55:27.387Z,72.10
2022-10-07T02:57:01.132Z,72.30
2022-10-07T02:58:34.570Z,72.20
2022-10-07T03:00:11.075Z,72.20
2022-10-07T03:01:56.904Z,72.10
2022-10-07T03:03:30.207Z,72.20
2022-10-07T03:05:08.508Z,72.00
2022-10-07T03:06:42.842Z,72.00
2022-10-07T03:08:14.590Z,72.10
2022-10-07T03:09:48.912Z,72.10
2022-10-07T03:11:20.558Z,72.20
2022-10-07T03:12:52.765Z,72.10
2022-10-07T03:14:24.790Z,71.90
2022-10-07T03:15:56.506Z,71.90
2022-10-07T03:17:31.150Z,72.20
2022-10-07T03:19:02.966Z,72.20
2022-10-07T03:20:38.411Z,72.20
2022-10-07T03:22:10.283Z,72.00
2022-10-07T03:23:44.601Z,72.00
2022-10-07T03:25:17.526Z,72.00
2022-10-07T03:26:49.986Z,72.20
2022-10-07T03:28:24.790Z,72.20
2022-10-07T03:29:58.408Z,72.30
2022-10-07T03:31:31.131Z,72.10
2022-10-07T03:33:04.206Z,72.10
2022-10-07T03:34:35.997Z,72.00
2022-10-07T03:36:08.905Z,72.20
2022-10-07T03:37:42.668Z,72.20
2022-10-07T03:39:15.190Z,71.90
2022-10-07T03:40:47.245Z,72.00
2022-10-07T03:42:19.461Z,72.10
2022-10-07T03:43:51.326Z,72.20
2022-10-07T03:45:26.852Z,72.30
2022-10-07T03:46:58.786Z,72.20
2022-10-07T03:48:31.950Z,72.30
2022-10-07T03:50:04.662Z,72.30
2022-10-07T03:51:37.078Z,72.30
2022-10-07T03:53:11.050Z,72.30
2022-10-07T03:54:43.451Z,72.30
2022-10-07T03:56:15.115Z,72.30
2022-10-07T03:57:54.282Z,72.40
2022-10-07T03:59:29.151Z,72.30
2022-10-07T04:01:13.518Z,72.20
2022-10-07T04:02:52.331Z,72.40
2022-10-07T04:04:24.104Z,72.30
2022-10-07T04:05:59.537Z,72.30
2022-10-07T04:07:33.183Z,72.40
2022-10-07T04:09:05.226Z,72.40
2022-10-07T04:10:36.895Z,72.20
2022-10-07T04:12:08.714Z,72.20
2022-10-07T04:13:40.517Z,72.30
2022-10-07T04:15:13.580Z,72.20
2022-10-07T04:16:47.113Z,72.10
2022-10-07T04:18:18.835Z,72.20
2022-10-07T04:19:50.483Z,72.30
2022-10-07T04:21:23.096Z,72.20
2022-10-07T04:22:55.040Z,72.20
2022-10-07T04:24:26.751Z,72.20
2022-10-07T04:25:58.479Z,72.20
2022-10-07T04:27:50.699Z,72.20
2022-10-07T04:29:21.930Z,72.30
2022-10-07T04:30:54.360Z,72.20
2022-10-07T04:32:31.748Z,72.20
2022-10-07T04:34:03.615Z,72.20
2022-10-07T04:35:41.740Z,72.30
2022-10-07T04:37:14.008Z,72.40
2022-10-07T04:38:50.266Z,72.20
2022-10-07T04:40:24.607Z,72.20
2022-10-07T04:41:56.996Z,72.20
2022-10-07T04:43:34.789Z,72.20
2022-10-07T04:45:10.836Z,72.20
2022-10-07T04:46:43.025Z,72.20
2022-10-07T04:48:19.412Z,72.30
2022-10-07T04:49:53.596Z,72.20
2022-10-07T04:51:25.487Z,72.30
2022-10-07T04:53:00.635Z,72.20
2022-10-07T04:54:36.018Z,72.30
2022-10-07T04:56:08.747Z,72.20
2022-10-07T04:57:41.271Z,72.20
2022-10-07T04:59:12.924Z,72.20
2022-10-07T05:00:48.797Z,72.20
2022-10-07T05:02:21.874Z,72.40
2022-10-07T05:03:54.087Z,72.20
2022-10-07T05:05:27.111Z,72.10
2022-10-07T05:06:59.321Z,72.00
2022-10-07T05:08:31.736Z,72.20
2022-10-07T05:10:04.941Z,72.10
2022-10-07T05:11:37.589Z,72.20
2022-10-07T05:13:17.023Z,72.20
2022-10-07T05:14:50.751Z,72.00
2022-10-07T05:16:22.679Z,72.20
2022-10-07T05:17:55.750Z,72.20
2022-10-07T05:19:29.112Z,72.20
2022-10-07T05:21:05.140Z,72.10
2022-10-07T05:22:38.644Z,72.20
2022-10-07T05:24:10.484Z,72.20
2022-10-07T05:25:44.259Z,72.10
2022-10-07T05:27:16.171Z,72.30
2022-10-07T05:28:49.344Z,72.20
2022-10-07T05:30:24.934Z,72.00
2022-10-07T05:31:58.772Z,72.10
2022-10-07T05:33:34.561Z,72.10
2022-10-07T05:35:07.353Z,72.00
2022-10-07T05:36:39.080Z,72.00
2022-10-07T05:38:12.110Z,72.00
2022-10-07T05:39:44.753Z,72.00
2022-10-07T05:41:21.715Z,72.10
2022-10-07T05:42:53.561Z,71.90
2022-10-07T05:44:25.928Z,72.10
2022-10-07T05:46:05.587Z,72.00
2022-10-07T05:47:39.922Z,72.00
2022-10-07T05:49:12.111Z,72.20
2022-10-07T05:50:47.373Z,71.90
2022-10-07T05:52:21.041Z,71.90
2022-10-07T05:53:55.835Z,72.10
2022-10-07T05:55:29.994Z,72.00
2022-10-07T05:57:02.838Z,72.10
2022-10-07T05:58:38.742Z,72.20
2022-10-07T06:00:12.058Z,72.10
2022-10-07T06:01:50.784Z,72.10
2022-10-07T06:03:26.788Z,72.10
2022-10-07T06:05:01.047Z,72.10
2022-10-07T06:06:35.478Z,72.00
2022-10-07T06:08:11.130Z,72.10
2022-10-07T06:10:01.499Z,72.00
2022-10-07T06:11:52.444Z,71.90
2022-10-07T06:13:24.123Z,71.90
2022-10-07T06:14:56.014Z,72.00
2022-10-07T06:16:28.294Z,72.20
2022-10-07T06:18:00.068Z,72.30
2022-10-07T06:19:32.816Z,72.20
2022-10-07T06:21:06.754Z,72.20
2022-10-07T06:22:40.514Z,72.20
2022-10-07T06:24:12.382Z,72.30
2022-10-07T06:25:45.259Z,72.20
2022-10-07T06:27:16.971Z,72.20
2022-10-07T06:28:49.856Z,72.40
2022-10-07T06:30:22.383Z,72.20
2022-10-07T06:31:54.371Z,72.40
2022-10-07T06:33:26.127Z,72.30
2022-10-07T06:34:57.912Z,72.30
2022-10-07T06:36:29.563Z,72.20
2022-10-07T06:38:02.695Z,72.30
2022-10-07T06:39:34.498Z,72.30
2022-10-07T06:41:07.058Z,72.40
2022-10-07T06:42:39.929Z,72.40
2022-10-07T06:44:23.851Z,72.50
2022-10-07T06:45:59.505Z,72.60
2022-10-07T06:47:31.374Z,72.50
2022-10-07T06:49:04.003Z,72.40
2022-10-07T06:50:35.668Z,72.50
2022-10-07T06:52:07.754Z,72.80
2022-10-07T06:53:40.135Z,72.40
2022-10-07T06:55:12.116Z,72.50
2022-10-07T06:56:44.267Z,72.70
2022-10-07T06:58:16.116Z,72.60
2022-10-07T06:59:48.800Z,72.70
2022-10-07T07:01:22.411Z,72.60
2022-10-07T07:02:54.519Z,72.90
2022-10-07T07:04:27.420Z,72.90
2022-10-07T07:05:59.601Z,73.30
2022-10-07T07:07:36.355Z,73.30
2022-10-07T07:09:08.063Z,73.30
2022-10-07T07:10:44.414Z,73.30
2022-10-07T07:12:17.285Z,73.40
2022-10-07T07:13:49.384Z,73.10
2022-10-07T07:15:22.107Z,73.30
2022-10-07T07:16:53.883Z,73.50
2022-10-07T07:18:28.939Z,73.50
2022-10-07T07:20:01.071Z,73.60
2022-10-07T07:21:38.140Z,73.70
2022-10-07T07:23:10.999Z,73.60
2022-10-07T07:24:43.025Z,73.60
2022-10-07T07:26:14.709Z,73.70
2022-10-07T07:27:48.640Z,73.80
2022-10-07T07:29:22.221Z,73.90
2022-10-07T07:31:08.263Z,73.90
2022-10-07T07:32:40.652Z,74.10
2022-10-07T07:34:16.520Z,74.10
2022-10-07T07:35:50.648Z,74.20
2022-10-07T07:37:24.221Z,74.40
2022-10-07T07:39:03.888Z,74.40
2022-10-07T07:40:39.651Z,74.50
2022-10-07T07:42:12.442Z,74.50
2022-10-07T07:43:48.861Z,74.50
2022-10-07T07:45:20.678Z,74.60
2022-10-07T07:46:52.442Z,74.80
2022-10-07T07:48:25.791Z,74.90
2022-10-07T07:49:57.664Z,74.90
2022-10-07T07:51:34.344Z,74.90
2022-10-07T07:53:06.370Z,75.10
2022-10-07T07:54:39.657Z,75.00
2022-10-07T07:56:12.729Z,75.10
2022-10-07T07:57:45.495Z,75.00
2022-10-07T07:59:17.511Z,75.30
2022-10-07T08:01:01.320Z,75.30
2022-10-07T08:02:33.648Z,75.30
2022-10-07T08:04:05.616Z,75.30
2022-10-07T08:05:38.658Z,75.20
2022-10-07T08:07:12.770Z,75.20
2022-10-07T08:08:45.009Z,75.40
2022-10-07T08:10:17.291Z,75.40
2022-10-07T08:11:51.265Z,75.60
2022-10-07T08:13:24.120Z,75.50
2022-10-07T08:14:56.075Z,75.60
2022-10-07T08:16:29.245Z,75.70
2022-10-07T08:18:04.281Z,75.90
2022-10-07T08:19:36.029Z,75.90
2022-10-07T08:21:10.476Z,76.10
2022-10-07T08:22:45.722Z,76.00
2022-10-07T08:24:17.747Z,76.20
2022-10-07T08:25:54.718Z,76.20
2022-10-07T08:27:26.894Z,76.20
2022-10-07T08:28:59.777Z,76.40
2022-10-07T08:30:32.894Z,76.50
2022-10-07T08:32:04.660Z,76.40
2022-10-07T08:33:39.559Z,76.60
2022-10-07T08:35:11.215Z,76.60
2022-10-07T08:36:47.050Z,76.70
2022-10-07T08:38:18.757Z,76.60
2022-10-07T08:39:50.426Z,76.70
2022-10-07T08:41:34.039Z,76.80
2022-10-07T08:43:08.974Z,76.80
2022-10-07T08:44:44.021Z,77.00
2022-10-07T08:46:19.506Z,77.00
2022-10-07T08:47:52.284Z,77.30
2022-10-07T08:49:39.986Z,77.40
2022-10-07T08:51:29.225Z,77.20
2022-10-07T08:53:05.481Z,77.40
2022-10-07T08:54:38.222Z,77.40
2022-10-07T08:56:18.766Z,77.60
2022-10-07T08:57:54.795Z,77.70
2022-10-07T08:59:31.366Z,77.70
2022-10-07T09:01:26.234Z,77.90
2022-10-07T09:03:15.283Z,77.70
2022-10-07T09:05:17.976Z,77.50
2022-10-07T09:06:56.483Z,77.60
2022-10-07T09:08:36.323Z,77.60
2022-10-07T09:10:22.859Z,78.10
2022-10-07T09:11:56.146Z,78.00
2022-10-07T09:13:32.214Z,78.20
2022-10-07T09:15:19.625Z,78.00
2022-10-07T09:16:54.884Z,77.90
2022-10-07T09:18:42.366Z,77.90
2022-10-07T09:20:21.130Z,78.10
2022-10-07T09:21:55.106Z,78.20
2022-10-07T09:23:31.863Z,78.20
2022-10-07T09:25:18.804Z,78.30
2022-10-07T09:26:56.865Z,78.30
2022-10-07T09:28:33.219Z,78.30
2022-10-07T09:30:06.244Z,78.40
2022-10-07T09:31:39.814Z,78.10
2022-10-07T09:33:16.652Z,78.20
2022-10-07T09:34:48.366Z,78.20
2022-10-07T09:36:20.291Z,78.30
2022-10-07T09:38:00.688Z,78.30
2022-10-07T09:39:32.451Z,78.30
2022-10-07T09:41:32.453Z,78.40
2022-10-07T09:43:13.705Z,78.50
2022-10-07T09:44:52.336Z,78.80
2022-10-07T09:46:35.276Z,78.70
2022-10-07T09:48:20.614Z,78.90
2022-10-07T09:49:59.566Z,78.80
2022-10-07T09:51:32.631Z,78.70
2022-10-07T09:53:16.124Z,78.80
2022-10-07T09:54:50.041Z,79.00
2022-10-07T09:56:37.951Z,79.10
2022-10-07T09:58:31.824Z,79.10
2022-10-07T10:00:12.362Z,79.10
2022-10-07T10:01:58.939Z,79.00
2022-10-07T10:03:35.906Z,79.20
2022-10-07T10:05:20.908Z,79.20
2022-10-07T10:06:54.597Z,79.30
2022-10-07T10:08:38.688Z,79.20
2022-10-07T10:10:21.279Z,79.40
2022-10-07T10:12:10.353Z,79.40
2022-10-07T10:13:42.088Z,79.40
2022-10-07T10:15:41.051Z,79.50
2022-10-07T10:17:30.105Z,79.40
2022-10-07T10:19:05.248Z,79.40
2022-10-07T10:20:43.230Z,79.40
2022-10-07T10:22:26.999Z,79.30
2022-10-07T10:24:01.130Z,79.40
2022-10-07T10:26:13.778Z,79.40
2022-10-07T10:27:59.459Z,79.30
2022-10-07T10:29:49.610Z,79.20
2022-10-07T10:32:00.095Z,79.20
2022-10-07T10:33:40.946Z,79.20
2022-10-07T10:35:23.117Z,79.30
2022-10-07T10:37:41.389Z,79.30
2022-10-07T10:39:30.258Z,79.40
2022-10-07T10:41:22.668Z,79.30
2022-10-07T10:43:12.246Z,79.30
2022-10-07T10:45:07.796Z,79.40
2022-10-07T10:46:54.864Z,79.30
2022-10-07T10:48:29.336Z,79.30
2022-10-07T10:50:23.568Z,79.30
2022-10-07T10:52:32.027Z,79.10
2022-10-07T10:54:18.244Z,78.60
2022-10-07T10:56:32.001Z,78.50
2022-10-07T10:58:06.507Z,78.50
2022-10-07T10:59:56.923Z,78.50
2022-10-07T11:01:40.632Z,78.50
2022-10-07T11:03:24.377Z,78.40
2022-10-07T11:05:21.650Z,78.40
2022-10-07T11:07:02.310Z,78.60
2022-10-07T11:08:38.458Z,78.40
2022-10-07T11:10:21.743Z,78.40
2022-10-07T11:11:53.476Z,78.20
2022-10-07T11:13:54.488Z,78.00
2022-10-07T11:15:35.680Z,78.00
2022-10-07T11:17:10.212Z,77.90
2022-10-07T11:18:49.900Z,77.90
2022-10-07T11:20:44.780Z,77.70
2022-10-07T11:22:32.966Z,77.60
2022-10-07T11:24:10.489Z,77.50
2022-10-07T11:25:50.651Z,77.60
2022-10-07T11:27:32.448Z,77.50
2022-10-07T11:29:33.561Z,77.50
2022-10-07T11:31:25.829Z,77.50
2022-10-07T11:33:15.117Z,77.60
2022-10-07T11:35:32.672Z,77.50
2022-10-07T11:37:21.618Z,77.60
2022-10-07T11:38:53.730Z,77.50
2022-10-07T11:40:29.564Z,77.50
2022-10-07T11:42:19.663Z,77.50
2022-10-07T11:43:56.799Z,77.20
2022-10-07T11:45:41.029Z,77.10
2022-10-07T11:47:19.802Z,77.00
2022-10-07T11:49:25.323Z,77.00
2022-10-07T11:51:03.925Z,76.70
2022-10-07T11:52:42.246Z,76.80
2022-10-07T11:54:17.978Z,76.80
2022-10-07T11:56:29.069Z,76.90
2022-10-07T11:58:04.064Z,76.80
2022-10-07T11:59:46.088Z,76.80
2022-10-07T12:01:28.506Z,76.80
2022-10-07T12:03:18.302Z,76.80
2022-10-07T12:04:50.033Z,76.80
2022-10-07T12:06:21.712Z,76.80
2022-10-07T12:07:58.741Z,76.80
2022-10-07T12:09:53.169Z,76.80
2022-10-07T12:11:37.109Z,76.90
2022-10-07T12:13:09.166Z,76.80
2022-10-07T12:14:43.617Z,76.70
2022-10-07T12:16:24.766Z,76.80
2022-10-07T12:18:17.285Z,76.80
2022-10-07T12:20:30.182Z,76.90
2022-10-07T12:22:04.821Z,76.90
2022-10-07T12:23:38.241Z,76.70
2022-10-07T12:25:42.175Z,76.70
2022-10-07T12:27:21.511Z,76.90
2022-10-07T12:28:54.933Z,76.90
2022-10-07T12:30:51.269Z,77.10
2022-10-07T12:32:46.526Z,77.20
2022-10-07T12:34:48.277Z,77.10
2022-10-07T12:36:23.560Z,77.30
2022-10-07T12:38:18.654Z,77.20
2022-10-07T12:39:50.453Z,77.00
2022-10-07T12:41:40.839Z,77.00
2022-10-07T12:43:25.190Z,77.20
2022-10-07T12:44:59.930Z,77.20
2022-10-07T12:46:34.694Z,77.30
2022-10-07T12:48:15.814Z,77.10
2022-10-07T12:49:51.976Z,77.20
2022-10-07T12:51:29.597Z,77.20
2022-10-07T12:53:02.870Z,77.20
2022-10-07T12:54:39.106Z,77.20
2022-10-07T12:56:20.967Z,77.20
2022-10-07T12:58:15.327Z,77.10
2022-10-07T13:00:07.830Z,76.90
2022-10-07T13:01:49.827Z,76.70
2022-10-07T13:03:25.014Z,76.60
2022-10-07T13:05:25.117Z,76.50
2022-10-07T13:07:34.107Z,76.20
2022-10-07T13:09:54.408Z,75.90
2022-10-07T13:11:26.023Z,75.90
2022-10-07T13:13:10.425Z,75.90
2022-10-07T13:15:26.543Z,75.90
2022-10-07T13:17:16.934Z,75.90
2022-10-07T13:19:16.407Z,75.90
2022-10-07T13:20:56.946Z,75.90
2022-10-07T13:22:30.598Z,75.90
2022-10-07T13:24:02.727Z,75.90
2022-10-07T13:25:34.524Z,76.00
2022-10-07T13:27:10.723Z,75.90
2022-10-07T13:29:01.180Z,75.90
2022-10-07T13:30:39.911Z,76.00
2022-10-07T13:32:17.827Z,75.90
2022-10-07T13:33:50.739Z,76.00
2022-10-07T13:35:38.831Z,76.00
2022-10-07T13:37:45.595Z,76.00
2022-10-07T13:39:17.148Z,76.10
2022-10-07T13:41:28.949Z,76.10
2022-10-07T13:43:03.456Z,76.10
2022-10-07T13:44:35.364Z,76.00
2022-10-07T13:46:09.682Z,76.00
2022-10-07T13:47:44.968Z,76.00
2022-10-07T13:49:23.487Z,76.10
2022-10-07T13:50:58.872Z,76.00
2022-10-07T13:52:52.812Z,76.00
2022-10-07T13:54:28.926Z,76.10
2022-10-07T13:56:20.544Z,76.00
2022-10-07T13:57:54.707Z,76.10
2022-10-07T13:59:26.968Z,76.00
2022-10-07T14:00:59.428Z,75.90
2022-10-07T14:02:31.161Z,75.70
2022-10-07T14:04:14.728Z,75.60
2022-10-07T14:05:51.818Z,75.60
2022-10-07T14:07:26.917Z,75.50
2022-10-07T14:08:58.545Z,75.50
2022-10-07T14:10:31.248Z,75.40
2022-10-07T14:12:08.069Z,75.20
2022-10-07T14:13:43.094Z,75.00
2022-10-07T14:15:19.486Z,75.00
2022-10-07T14:16:59.513Z,75.20
2022-10-07T14:18:31.813Z,75.10
2022-10-07T14:20:07.091Z,75.10
2022-10-07T14:21:42.612Z,75.00
2022-10-07T14:23:20.140Z,75.10
2022-10-07T14:24:55.094Z,75.10
2022-10-07T14:26:43.447Z,75.00
2022-10-07T14:28:35.923Z,74.90
2022-10-07T14:30:26.509Z,74.90
2022-10-07T14:32:29.548Z,74.90
2022-10-07T14:34:37.786Z,74.90
2022-10-07T14:36:16.016Z,74.80
2022-10-07T14:37:49.189Z,74.80
2022-10-07T14:39:23.415Z,74.80
2022-10-07T14:40:55.037Z,74.80
2022-10-07T14:42:28.026Z,74.80
2022-10-07T14:44:02.620Z,74.70
2022-10-07T14:45:34.672Z,74.60
2022-10-07T14:47:10.241Z,74.60
2022-10-07T14:48:42.738Z,74.50
2022-10-07T14:50:14.659Z,74.50
2022-10-07T14:51:47.100Z,74.50
2022-10-07T14:53:18.731Z,74.50
2022-10-07T14:54:54.589Z,74.60
2022-10-07T14:56:31.704Z,74.50
2022-10-07T14:58:04.144Z,74.50
2022-10-07T14:59:36.374Z,74.30
2022-10-07T15:01:08.306Z,74.20
2022-10-07T15:02:39.897Z,74.10
2022-10-07T15:04:12.151Z,74.00
2022-10-07T15:05:44.045Z,73.90
2022-10-07T15:07:16.245Z,74.00
2022-10-07T15:08:49.082Z,74.00
2022-10-07T15:10:23.432Z,74.00
2022-10-07T15:11:56.078Z,74.10
2022-10-07T15:13:28.166Z,74.10
2022-10-07T15:14:59.818Z,74.20
2022-10-07T15:16:31.966Z,74.30
2022-10-07T15:18:03.716Z,74.40
2022-10-07T15:19:35.786Z,74.40
2022-10-07T15:21:08.429Z,74.40
2022-10-07T15:22:40.331Z,74.40
2022-10-07T15:24:12.807Z,74.40
2022-10-07T15:25:44.535Z,74.50
2022-10-07T15:27:18.939Z,74.50
2022-10-07T15:28:56.223Z,74.60
2022-10-07T15:30:34.399Z,74.40
2022-10-07T15:32:08.687Z,74.40
2022-10-07T15:33:41.049Z,74.40
2022-10-07T15:35:12.702Z,74.30
2022-10-07T15:36:44.934Z,74.40
2022-10-07T15:38:16.571Z,74.30
2022-10-07T15:39:48.439Z,74.50
2022-10-07T15:41:29.314Z,74.50
2022-10-07T15:43:00.955Z,74.50
2022-10-07T15:44:32.571Z,74.60
2022-10-07T15:46:04.369Z,74.60
2022-10-07T15:47:36.406Z,74.70
2022-10-07T15:49:08.588Z,74.90
2022-10-07T15:50:47.809Z,74.80
2022-10-07T15:52:19.473Z,74.90
2022-10-07T15:53:51.639Z,74.90
2022-10-07T15:55:23.316Z,74.90
2022-10-07T15:56:54.984Z,74.90
2022-10-07T15:58:30.353Z,74.90
2022-10-07T16:00:03.334Z,75.10
2022-10-07T16:01:44.222Z,74.90
2022-10-07T16:03:16.919Z,75.00
2022-10-07T16:04:48.959Z,75.10
2022-10-07T16:06:23.014Z,75.00
2022-10-07T16:07:54.650Z,74.90
2022-10-07T16:09:26.613Z,75.10
2022-10-07T16:11:12.052Z,74.90
2022-10-07T16:12:44.001Z,75.10
2022-10-07T16:14:16.308Z,75.20
2022-10-07T16:16:01.958Z,75.20
2022-10-07T16:17:33.667Z,75.30
2022-10-07T16:19:05.284Z,75.40
2022-10-07T16:20:39.959Z,75.30
2022-10-07T16:22:11.689Z,75.20
2022-10-07T16:23:46.116Z,75.30
2022-10-07T16:25:17.770Z,75.30
2022-10-07T16:26:53.087Z,75.30
2022-10-07T16:28:43.353Z,75.30
2022-10-07T16:30:33.590Z,75.20
2022-10-07T16:32:10.189Z,75.10
2022-10-07T16:33:41.976Z,75.00
2022-10-07T16:35:13.696Z,75.20
2022-10-07T16:36:49.429Z,74.90
2022-10-07T16:38:22.269Z,75.10
2022-10-07T16:39:53.868Z,75.20
2022-10-07T16:41:26.168Z,75.30
2022-10-07T16:42:59.484Z,75.60
2022-10-07T16:44:31.112Z,75.70
2022-10-07T16:46:09.076Z,75.40
2022-10-07T16:47:41.361Z,75.70
2022-10-07T16:49:16.101Z,75.80
2022-10-07T16:50:48.445Z,75.90
2022-10-07T16:52:21.459Z,76.00
2022-10-07T16:53:55.457Z,75.80
2022-10-07T16:55:27.141Z,76.00
2022-10-07T16:56:58.863Z,76.20
2022-10-07T16:58:31.547Z,76.40
2022-10-07T17:00:04.233Z,76.50
2022-10-07T17:01:36.150Z,76.40
2022-10-07T17:03:07.850Z,76.50
2022-10-07T17:04:39.641Z,76.70
2022-10-07T17:06:17.898Z,76.80
2022-10-07T17:08:02.692Z,76.80
2022-10-07T17:09:34.354Z,76.90
2022-10-07T17:11:08.290Z,77.00
2022-10-07T17:12:39.881Z,77.00
2022-10-07T17:14:18.122Z,77.10
2022-10-07T17:15:52.608Z,77.10
2022-10-07T17:17:24.619Z,77.20
2022-10-07T17:18:56.613Z,77.20
2022-10-07T17:20:29.957Z,77.10
2022-10-07T17:22:03.883Z,77.20
2022-10-07T17:23:35.810Z,77.20
2022-10-07T17:25:07.820Z,77.10
2022-10-07T17:26:40.738Z,76.80
2022-10-07T17:28:13.661Z,76.70
2022-10-07T17:29:45.957Z,76.80
2022-10-07T17:31:18.302Z,76.70
2022-10-07T17:32:50.605Z,76.70
2022-10-07T17:34:22.582Z,76.60
2022-10-07T17:36:01.221Z,76.50
2022-10-07T17:37:33.761Z,76.60
2022-10-07T17:39:05.638Z,76.60
2022-10-07T17:40:37.799Z,76.60
2022-10-07T17:42:09.532Z,76.50
2022-10-07T17:43:41.390Z,76.40
2022-10-07T17:45:13.283Z,76.50
2022-10-07T17:46:45.233Z,76.50
2022-10-07T17:48:16.966Z,76.50
2022-10-07T17:49:48.632Z,76.50
2022-10-07T17:51:21.810Z,76.40
2022-10-07T17:52:53.724Z,76.50
2022-10-07T17:54:25.426Z,76.40
2022-10-07T17:55:57.146Z,76.50
2022-10-07T17:57:29.557Z,76.60
2022-10-07T17:59:02.251Z,76.60
2022-10-07T18:00:33.910Z,76.60
2022-10-07T18:02:05.926Z,76.60
2022-10-07T18:03:38.280Z,76.60
2022-10-07T18:05:10.175Z,76.70
2022-10-07T18:06:43.187Z,76.60
2022-10-07T18:08:14.943Z,76.60
2022-10-07T18:09:46.942Z,76.70
2022-10-07T18:11:18.599Z,76.50
2022-10-07T18:13:08.665Z,76.60
2022-10-07T18:14:58.994Z,76.50
2022-10-07T18:16:35.290Z,76.50
2022-10-07T18:18:07.082Z,76.40
2022-10-07T18:19:41.957Z,76.50
2022-10-07T18:21:14.206Z,76.30
2022-10-07T18:22:45.892Z,76.30
2022-10-07T18:24:17.654Z,76.20
2022-10-07T18:25:49.288Z,76.30
2022-10-07T18:27:25.026Z,76.40
2022-10-07T18:28:57.439Z,76.40
2022-10-07T18:30:29.216Z,76.40
2022-10-07T18:32:01.291Z,76.40
2022-10-07T18:33:35.345Z,76.50
2022-10-07T18:35:07.249Z,76.50
2022-10-07T18:36:39.347Z,76.50
2022-10-07T18:38:11.052Z,76.60
2022-10-07T18:39:42.813Z,76.60
2022-10-07T18:41:16.594Z,76.70
2022-10-07T18:42:48.196Z,76.60
2022-10-07T18:44:19.869Z,76.80
2022-10-07T18:46:07.130Z,76.80
2022-10-07T18:47:38.874Z,76.90
2022-10-07T18:49:13.530Z,77.00
2022-10-07T18:50:51.917Z,77.10
2022-10-07T18:52:23.570Z,76.90
2022-10-07T18:53:55.258Z,77.20
2022-10-07T18:55:26.894Z,77.30
2022-10-07T18:56:58.560Z,77.20
2022-10-07T18:58:37.296Z,77.20
2022-10-07T19:00:09.508Z,77.20
2022-10-07T19:01:41.463Z,77.30
2022-10-07T19:03:13.729Z,77.40
2022-10-07T19:04:45.393Z,77.30
2022-10-07T19:06:19.788Z,77.40
2022-10-07T19:07:51.504Z,77.30
2022-10-07T19:09:23.426Z,76.70
2022-10-07T19:10:55.072Z,76.20
2022-10-07T19:12:45.458Z,76.50
2022-10-07T19:14:17.331Z,76.80
2022-10-07T19:15:49.077Z,76.70
2022-10-07T19:17:20.731Z,77.20
2022-10-07T19:18:54.801Z,76.80
2022-10-07T19:20:26.517Z,76.20
2022-10-07T19:21:58.387Z,76.60
2022-10-07T19:23:30.092Z,76.70
2022-10-07T19:25:26.157Z,76.80
2022-10-07T19:26:58.113Z,76.00
2022-10-07T19:28:30.899Z,77.00
2022-10-07T19:30:02.706Z,76.70
2022-10-07T19:31:37.302Z,75.80
2022-10-07T19:33:11.803Z,75.00
2022-10-07T19:34:43.574Z,74.50
2022-10-07T19:36:15.345Z,74.30
2022-10-07T19:37:47.330Z,75.40
2022-10-07T19:39:21.760Z,74.80
2022-10-07T19:40:55.683Z,75.70
2022-10-07T19:42:28.349Z,75.50
2022-10-07T19:44:00.669Z,75.20
2022-10-07T19:45:35.340Z,75.40
2022-10-07T19:47:07.043Z,76.70
2022-10-07T19:48:39.189Z,76.80
2022-10-07T19:50:10.933Z,76.30
2022-10-07T19:51:45.414Z,75.50
2022-10-07T19:53:17.146Z,76.10
2022-10-07T19:54:49.755Z,76.10
2022-10-07T19:56:28.013Z,74.70
2022-10-07T19:58:02.191Z,75.00
2022-10-07T19:59:34.038Z,74.70
2022-10-07T20:01:09.657Z,74.50
2022-10-07T20:02:41.451Z,74.80
2022-10-07T20:04:20.640Z,74.50
2022-10-07T20:05:53.106Z,74.80
2022-10-07T20:07:24.769Z,74.10
2022-10-07T20:08:57.256Z,73.80
2022-10-07T20:10:29.060Z,73.80
2022-10-07T20:12:01.267Z,73.80
2022-10-07T20:13:35.473Z,73.30
2022-10-07T20:15:09.146Z,73.50
2022-10-07T20:16:40.831Z,73.50
2022-10-07T20:18:12.534Z,73.30
2022-10-07T20:19:44.276Z,73.30
2022-10-07T20:21:22.044Z,73.30
2022-10-07T20:22:54.293Z,73.30
2022-10-07T20:24:26.400Z,73.60
2022-10-07T20:25:58.109Z,73.40
2022-10-07T20:27:29.822Z,73.40
2022-10-07T20:29:03.587Z,73.20
2022-10-07T20:30:35.236Z,73.30
2022-10-07T20:32:06.999Z,73.00
2022-10-07T20:33:40.272Z,73.20
2022-10-07T20:35:12.195Z,73.30
2022-10-07T20:36:44.182Z,73.10
2022-10-07T20:38:15.879Z,73.00
2022-10-07T20:40:06.329Z,73.10
2022-10-07T20:41:56.843Z,73.00
2022-10-07T20:43:28.584Z,73.70
2022-10-07T20:45:00.647Z,73.70
2022-10-07T20:46:32.663Z,73.80
2022-10-07T20:48:05.124Z,73.70
2022-10-07T20:49:41.164Z,73.30
2022-10-07T20:51:13.175Z,73.20